aviador You're here:

CYSF Decoded Metar

STONY RAPIDS in SK, CANADA
Report Time2017-07-23 00:00:00
UTC Time2017-07-23 00:51:49
Flight Rules vfr VFR
Wind110° at 05 kt
W.Decomp.*RWY 06: 3.9 kt HW 3.1 kt RCW
W.Rank110° ranks 6
Current wind is above 110° avg. (4.6)
Visibility9999 m
Phenomena:N/A
Clouds:N/A
Expected CloudBase > 2,800 ft AGL from Temp-Dew spread
CeilingNone
Temp22°C (ISA +9)
Dew Point15°C (65% RH)
AAT21.9°C
QNH1008 hPa
Density Alt2,224 ft
Elevation820 ft
Report Wrong Elevation
Raw Report
CYSF 230000Z AUTO 11005KT 090V160 9SM CLR 22/15 A2976 RMK LTNG
DIST W SLP084 DENSITY ALT 1900FT=

Extra information for CYSF:More info

Metar Taf Metar & Taf Last 4 Metars F.Rules Stats Wind Profile Meteogram Temp Stats Airport Information Weather charts Add Link Nearby VenuesMetar ALERT Operation Metar Decoded Social comments